sensor_id;sensor_type;location;lat;lon;timestamp;P1;durP1;ratioP1;P2;durP2;ratioP2
6842;SDS011;3460;52.028;8.916;2022-10-04T00:02:01;6.30;;;2.80;;
6842;SDS011;3460;52.028;8.916;2022-10-04T00:04:31;7.60;;;3.37;;
6842;SDS011;3460;52.028;8.916;2022-10-04T00:07:13;9.80;;;3.33;;
6842;SDS011;3460;52.028;8.916;2022-10-04T00:09:46;5.90;;;2.97;;
6842;SDS011;3460;52.028;8.916;2022-10-04T00:12:17;7.53;;;2.93;;
6842;SDS011;3460;52.028;8.916;2022-10-04T00:14:47;8.83;;;3.40;;
6842;SDS011;3460;52.028;8.916;2022-10-04T00:17:17;5.30;;;3.10;;
6842;SDS011;3460;52.028;8.916;2022-10-04T00:19:48;8.53;;;3.60;;
6842;SDS011;3460;52.028;8.916;2022-10-04T00:22:20;9.10;;;3.33;;
6842;SDS011;3460;52.028;8.916;2022-10-04T00:30:40;6.20;;;3.30;;
6842;SDS011;3460;52.028;8.916;2022-10-04T00:33:07;9.27;;;3.60;;
6842;SDS011;3460;52.028;8.916;2022-10-04T00:35:48;6.60;;;3.63;;
6842;SDS011;3460;52.028;8.916;2022-10-04T00:38:15;6.93;;;3.30;;
6842;SDS011;3460;52.028;8.916;2022-10-04T00:40:53;8.17;;;3.20;;
6842;SDS011;3460;52.028;8.916;2022-10-04T00:43:25;7.53;;;3.10;;
6842;SDS011;3460;52.028;8.916;2022-10-04T00:45:55;6.03;;;3.00;;
6842;SDS011;3460;52.028;8.916;2022-10-04T00:48:33;8.70;;;3.50;;
6842;SDS011;3460;52.028;8.916;2022-10-04T00:51:11;7.83;;;3.33;;
6842;SDS011;3460;52.028;8.916;2022-10-04T00:53:56;14.03;;;3.57;;
6842;SDS011;3460;52.028;8.916;2022-10-04T00:56:29;7.00;;;3.40;;
6842;SDS011;3460;52.028;8.916;2022-10-04T00:59:08;7.67;;;3.37;;
6842;SDS011;3460;52.028;8.916;2022-10-04T01:01:43;6.17;;;3.17;;
6842;SDS011;3460;52.028;8.916;2022-10-04T01:04:20;6.67;;;3.30;;
6842;SDS011;3460;52.028;8.916;2022-10-04T01:06:52;5.37;;;3.13;;
6842;SDS011;3460;52.028;8.916;2022-10-04T01:09:21;4.50;;;2.80;;
6842;SDS011;3460;52.028;8.916;2022-10-04T01:11:53;6.87;;;3.20;;
6842;SDS011;3460;52.028;8.916;2022-10-04T01:14:27;8.30;;;2.83;;
6842;SDS011;3460;52.028;8.916;2022-10-04T01:16:57;7.83;;;3.10;;
6842;SDS011;3460;52.028;8.916;2022-10-04T01:19:26;6.90;;;3.23;;
6842;SDS011;3460;52.028;8.916;2022-10-04T01:22:08;8.53;;;3.07;;
6842;SDS011;3460;52.028;8.916;2022-10-04T01:24:38;5.93;;;2.97;;
6842;SDS011;3460;52.028;8.916;2022-10-04T01:27:29;5.27;;;3.10;;
6842;SDS011;3460;52.028;8.916;2022-10-04T01:29:57;5.90;;;2.97;;
6842;SDS011;3460;52.028;8.916;2022-10-04T01:32:24;7.83;;;3.00;;
6842;SDS011;3460;52.028;8.916;2022-10-04T01:34:51;9.40;;;3.57;;
6842;SDS011;3460;52.028;8.916;2022-10-04T01:37:18;6.30;;;2.97;;
6842;SDS011;3460;52.028;8.916;2022-10-04T01:39:46;5.93;;;3.10;;
6842;SDS011;3460;52.028;8.916;2022-10-04T01:42:14;4.50;;;2.97;;
6842;SDS011;3460;52.028;8.916;2022-10-04T01:44:46;8.43;;;3.10;;
6842;SDS011;3460;52.028;8.916;2022-10-04T01:47:20;6.83;;;3.23;;
6842;SDS011;3460;52.028;8.916;2022-10-04T01:49:51;5.97;;;3.10;;
6842;SDS011;3460;52.028;8.916;2022-10-04T01:52:22;6.83;;;3.13;;
6842;SDS011;3460;52.028;8.916;2022-10-04T01:54:58;7.67;;;3.37;;
6842;SDS011;3460;52.028;8.916;2022-10-04T01:57:30;6.63;;;3.10;;
6842;SDS011;3460;52.028;8.916;2022-10-04T02:00:01;6.53;;;2.97;;
6842;SDS011;3460;52.028;8.916;2022-10-04T02:02:31;5.57;;;3.13;;
6842;SDS011;3460;52.028;8.916;2022-10-04T02:05:02;7.50;;;3.03;;
6842;SDS011;3460;52.028;8.916;2022-10-04T02:07:34;4.73;;;3.03;;
6842;SDS011;3460;52.028;8.916;2022-10-04T02:10:05;13.13;;;3.20;;
6842;SDS011;3460;52.028;8.916;2022-10-04T02:12:37;6.33;;;3.40;;
6842;SDS011;3460;52.028;8.916;2022-10-04T02:15:10;5.43;;;3.40;;
6842;SDS011;3460;52.028;8.916;2022-10-04T02:17:38;7.40;;;3.50;;
6842;SDS011;3460;52.028;8.916;2022-10-04T02:20:08;8.90;;;3.33;;
6842;SDS011;3460;52.028;8.916;2022-10-04T02:22:43;8.43;;;3.10;;
6842;SDS011;3460;52.028;8.916;2022-10-04T02:25:15;5.83;;;3.00;;
6842;SDS011;3460;52.028;8.916;2022-10-04T02:27:44;4.27;;;3.37;;
6842;SDS011;3460;52.028;8.916;2022-10-04T02:30:12;5.87;;;3.33;;
6842;SDS011;3460;52.028;8.916;2022-10-04T02:32:40;8.37;;;2.90;;
6842;SDS011;3460;52.028;8.916;2022-10-04T02:35:24;8.50;;;3.40;;
6842;SDS011;3460;52.028;8.916;2022-10-04T02:37:54;7.10;;;3.00;;
6842;SDS011;3460;52.028;8.916;2022-10-04T02:40:31;5.20;;;3.30;;
6842;SDS011;3460;52.028;8.916;2022-10-04T02:43:07;8.77;;;3.80;;
6842;SDS011;3460;52.028;8.916;2022-10-04T02:45:38;10.00;;;3.57;;
6842;SDS011;3460;52.028;8.916;2022-10-04T02:48:15;7.27;;;3.37;;
6842;SDS011;3460;52.028;8.916;2022-10-04T02:50:52;5.80;;;3.57;;
6842;SDS011;3460;52.028;8.916;2022-10-04T02:53:23;7.67;;;3.70;;
6842;SDS011;3460;52.028;8.916;2022-10-04T02:55:57;7.63;;;3.10;;
6842;SDS011;3460;52.028;8.916;2022-10-04T02:58:26;9.77;;;3.47;;
6842;SDS011;3460;52.028;8.916;2022-10-04T03:00:54;7.60;;;3.97;;
6842;SDS011;3460;52.028;8.916;2022-10-04T03:03:23;7.33;;;4.90;;
6842;SDS011;3460;52.028;8.916;2022-10-04T03:05:55;10.73;;;5.00;;
6842;SDS011;3460;52.028;8.916;2022-10-04T03:08:25;8.47;;;4.60;;
6842;SDS011;3460;52.028;8.916;2022-10-04T03:10:55;11.43;;;3.60;;
6842;SDS011;3460;52.028;8.916;2022-10-04T03:13:25;5.87;;;3.20;;
6842;SDS011;3460;52.028;8.916;2022-10-04T03:15:52;6.47;;;3.13;;
6842;SDS011;3460;52.028;8.916;2022-10-04T03:18:19;8.40;;;3.63;;
6842;SDS011;3460;52.028;8.916;2022-10-04T03:20:47;7.80;;;3.57;;
6842;SDS011;3460;52.028;8.916;2022-10-04T03:23:14;5.30;;;3.17;;
6842;SDS011;3460;52.028;8.916;2022-10-04T03:25:46;8.57;;;3.43;;
6842;SDS011;3460;52.028;8.916;2022-10-04T03:28:18;5.77;;;3.80;;
6842;SDS011;3460;52.028;8.916;2022-10-04T03:30:45;8.87;;;4.00;;
6842;SDS011;3460;52.028;8.916;2022-10-04T03:33:18;10.90;;;4.30;;
6842;SDS011;3460;52.028;8.916;2022-10-04T03:35:48;9.47;;;4.13;;
6842;SDS011;3460;52.028;8.916;2022-10-04T03:38:17;12.53;;;4.63;;
6842;SDS011;3460;52.028;8.916;2022-10-04T03:40:47;10.97;;;3.97;;
6842;SDS011;3460;52.028;8.916;2022-10-04T03:43:19;9.57;;;4.53;;
6842;SDS011;3460;52.028;8.916;2022-10-04T03:45:49;9.17;;;5.20;;
6842;SDS011;3460;52.028;8.916;2022-10-04T03:48:20;10.57;;;5.27;;
6842;SDS011;3460;52.028;8.916;2022-10-04T03:50:52;8.63;;;5.20;;
6842;SDS011;3460;52.028;8.916;2022-10-04T03:53:23;10.30;;;5.10;;
6842;SDS011;3460;52.028;8.916;2022-10-04T03:55:54;11.50;;;5.47;;
6842;SDS011;3460;52.028;8.916;2022-10-04T03:58:23;8.97;;;4.70;;
6842;SDS011;3460;52.028;8.916;2022-10-04T04:00:56;9.60;;;4.73;;
6842;SDS011;3460;52.028;8.916;2022-10-04T04:03:35;9.27;;;4.70;;
6842;SDS011;3460;52.028;8.916;2022-10-04T04:06:13;6.67;;;4.53;;
6842;SDS011;3460;52.028;8.916;2022-10-04T04:08:43;6.63;;;4.90;;
6842;SDS011;3460;52.028;8.916;2022-10-04T04:11:15;9.40;;;4.67;;
6842;SDS011;3460;52.028;8.916;2022-10-04T04:13:47;9.73;;;5.00;;
6842;SDS011;3460;52.028;8.916;2022-10-04T04:16:18;9.57;;;4.60;;
6842;SDS011;3460;52.028;8.916;2022-10-04T04:18:45;10.17;;;4.77;;
6842;SDS011;3460;52.028;8.916;2022-10-04T04:21:16;9.37;;;4.80;;
6842;SDS011;3460;52.028;8.916;2022-10-04T04:23:47;10.77;;;5.23;;
6842;SDS011;3460;52.028;8.916;2022-10-04T04:26:18;10.87;;;5.70;;
6842;SDS011;3460;52.028;8.916;2022-10-04T04:28:52;12.47;;;5.50;;
6842;SDS011;3460;52.028;8.916;2022-10-04T04:31:22;9.97;;;5.97;;
6842;SDS011;3460;52.028;8.916;2022-10-04T04:33:53;12.53;;;5.37;;
6842;SDS011;3460;52.028;8.916;2022-10-04T04:36:23;13.40;;;5.63;;
6842;SDS011;3460;52.028;8.916;2022-10-04T04:38:50;12.20;;;5.73;;
6842;SDS011;3460;52.028;8.916;2022-10-04T04:41:37;11.00;;;5.47;;
6842;SDS011;3460;52.028;8.916;2022-10-04T04:44:13;9.77;;;5.87;;
6842;SDS011;3460;52.028;8.916;2022-10-04T04:46:43;11.40;;;5.67;;
6842;SDS011;3460;52.028;8.916;2022-10-04T04:49:10;11.33;;;5.60;;
6842;SDS011;3460;52.028;8.916;2022-10-04T04:51:39;13.40;;;6.40;;
6842;SDS011;3460;52.028;8.916;2022-10-04T04:54:11;10.20;;;5.47;;
6842;SDS011;3460;52.028;8.916;2022-10-04T04:56:39;12.63;;;5.90;;
6842;SDS011;3460;52.028;8.916;2022-10-04T04:59:08;11.43;;;5.70;;
6842;SDS011;3460;52.028;8.916;2022-10-04T05:01:42;14.37;;;10.00;;
6842;SDS011;3460;52.028;8.916;2022-10-04T05:04:15;23.17;;;13.97;;
6842;SDS011;3460;52.028;8.916;2022-10-04T05:06:44;11.23;;;6.93;;
6842;SDS011;3460;52.028;8.916;2022-10-04T05:09:22;8.57;;;5.30;;
6842;SDS011;3460;52.028;8.916;2022-10-04T05:11:50;10.67;;;5.53;;
6842;SDS011;3460;52.028;8.916;2022-10-04T05:14:19;10.23;;;6.00;;
6842;SDS011;3460;52.028;8.916;2022-10-04T05:16:50;10.97;;;5.70;;
6842;SDS011;3460;52.028;8.916;2022-10-04T05:19:19;11.10;;;5.90;;
6842;SDS011;3460;52.028;8.916;2022-10-04T05:21:48;12.07;;;6.27;;
6842;SDS011;3460;52.028;8.916;2022-10-04T05:24:20;11.00;;;6.33;;
6842;SDS011;3460;52.028;8.916;2022-10-04T05:26:50;10.47;;;5.67;;
6842;SDS011;3460;52.028;8.916;2022-10-04T05:29:20;8.73;;;6.00;;
6842;SDS011;3460;52.028;8.916;2022-10-04T05:31:54;10.83;;;6.17;;
6842;SDS011;3460;52.028;8.916;2022-10-04T05:34:30;14.43;;;5.67;;
6842;SDS011;3460;52.028;8.916;2022-10-04T05:40:04;8.40;;;5.30;;
6842;SDS011;3460;52.028;8.916;2022-10-04T05:42:47;10.77;;;5.73;;
6842;SDS011;3460;52.028;8.916;2022-10-04T05:45:16;9.53;;;6.53;;
6842;SDS011;3460;52.028;8.916;2022-10-04T05:47:46;16.33;;;5.93;;
6842;SDS011;3460;52.028;8.916;2022-10-04T05:50:16;7.60;;;5.90;;
6842;SDS011;3460;52.028;8.916;2022-10-04T05:52:46;12.10;;;6.00;;
6842;SDS011;3460;52.028;8.916;2022-10-04T05:55:16;9.50;;;6.10;;
6842;SDS011;3460;52.028;8.916;2022-10-04T05:57:53;16.63;;;6.00;;
6842;SDS011;3460;52.028;8.916;2022-10-04T06:00:44;12.33;;;5.40;;
6842;SDS011;3460;52.028;8.916;2022-10-04T06:03:31;7.57;;;5.17;;
6842;SDS011;3460;52.028;8.916;2022-10-04T06:06:13;10.37;;;5.57;;
6842;SDS011;3460;52.028;8.916;2022-10-04T06:08:49;9.10;;;4.63;;
6842;SDS011;3460;52.028;8.916;2022-10-04T06:11:26;11.93;;;5.47;;
6842;SDS011;3460;52.028;8.916;2022-10-04T06:16:59;6.60;;;4.97;;
6842;SDS011;3460;52.028;8.916;2022-10-04T06:20:03;8.50;;;5.53;;
6842;SDS011;3460;52.028;8.916;2022-10-04T06:22:44;9.70;;;6.30;;
6842;SDS011;3460;52.028;8.916;2022-10-04T06:25:14;6.83;;;5.57;;
6842;SDS011;3460;52.028;8.916;2022-10-04T06:27:46;11.23;;;7.13;;
6842;SDS011;3460;52.028;8.916;2022-10-04T06:30:19;10.03;;;6.20;;
6842;SDS011;3460;52.028;8.916;2022-10-04T06:32:50;14.90;;;6.30;;
6842;SDS011;3460;52.028;8.916;2022-10-04T06:38:46;9.23;;;5.90;;
6842;SDS011;3460;52.028;8.916;2022-10-04T06:44:36;9.37;;;5.57;;
6842;SDS011;3460;52.028;8.916;2022-10-04T06:47:28;8.43;;;5.60;;
6842;SDS011;3460;52.028;8.916;2022-10-04T06:50:11;9.77;;;5.47;;
6842;SDS011;3460;52.028;8.916;2022-10-04T06:52:49;9.63;;;5.83;;
6842;SDS011;3460;52.028;8.916;2022-10-04T06:55:41;9.30;;;5.50;;
6842;SDS011;3460;52.028;8.916;2022-10-04T06:58:24;12.97;;;5.50;;
6842;SDS011;3460;52.028;8.916;2022-10-04T07:01:16;7.70;;;4.73;;
6842;SDS011;3460;52.028;8.916;2022-10-04T07:03:50;6.80;;;4.93;;
6842;SDS011;3460;52.028;8.916;2022-10-04T07:06:20;10.27;;;5.20;;
6842;SDS011;3460;52.028;8.916;2022-10-04T07:08:51;11.80;;;5.03;;
6842;SDS011;3460;52.028;8.916;2022-10-04T07:11:24;6.97;;;5.10;;
6842;SDS011;3460;52.028;8.916;2022-10-04T07:13:57;7.90;;;5.00;;
6842;SDS011;3460;52.028;8.916;2022-10-04T07:16:31;9.97;;;5.20;;
6842;SDS011;3460;52.028;8.916;2022-10-04T07:21:55;8.87;;;5.47;;
6842;SDS011;3460;52.028;8.916;2022-10-04T07:24:32;12.20;;;6.57;;
6842;SDS011;3460;52.028;8.916;2022-10-04T07:27:12;7.27;;;5.43;;
6842;SDS011;3460;52.028;8.916;2022-10-04T07:29:42;12.83;;;5.37;;
6842;SDS011;3460;52.028;8.916;2022-10-04T07:32:10;9.07;;;5.10;;
6842;SDS011;3460;52.028;8.916;2022-10-04T07:34:42;8.63;;;5.20;;
6842;SDS011;3460;52.028;8.916;2022-10-04T07:37:13;7.93;;;4.90;;
6842;SDS011;3460;52.028;8.916;2022-10-04T07:39:44;10.13;;;4.93;;
6842;SDS011;3460;52.028;8.916;2022-10-04T07:42:19;9.47;;;5.90;;
6842;SDS011;3460;52.028;8.916;2022-10-04T07:44:53;9.43;;;6.50;;
6842;SDS011;3460;52.028;8.916;2022-10-04T07:47:28;9.73;;;5.73;;
6842;SDS011;3460;52.028;8.916;2022-10-04T07:49:57;10.00;;;5.27;;
6842;SDS011;3460;52.028;8.916;2022-10-04T07:52:36;11.70;;;4.70;;
6842;SDS011;3460;52.028;8.916;2022-10-04T07:55:15;7.27;;;3.93;;
6842;SDS011;3460;52.028;8.916;2022-10-04T07:57:49;10.83;;;5.13;;
6842;SDS011;3460;52.028;8.916;2022-10-04T08:00:23;6.60;;;4.47;;
6842;SDS011;3460;52.028;8.916;2022-10-04T08:03:01;7.57;;;4.30;;
6842;SDS011;3460;52.028;8.916;2022-10-04T08:05:47;6.83;;;4.70;;
6842;SDS011;3460;52.028;8.916;2022-10-04T08:08:22;6.63;;;4.20;;
6842;SDS011;3460;52.028;8.916;2022-10-04T08:11:04;9.63;;;4.43;;
6842;SDS011;3460;52.028;8.916;2022-10-04T08:13:41;13.43;;;3.93;;
6842;SDS011;3460;52.028;8.916;2022-10-04T08:16:17;5.57;;;3.83;;
6842;SDS011;3460;52.028;8.916;2022-10-04T08:19:00;6.47;;;3.83;;
6842;SDS011;3460;52.028;8.916;2022-10-04T08:21:40;8.37;;;4.10;;
6842;SDS011;3460;52.028;8.916;2022-10-04T08:24:14;10.10;;;4.77;;
6842;SDS011;3460;52.028;8.916;2022-10-04T08:26:54;12.53;;;4.43;;
6842;SDS011;3460;52.028;8.916;2022-10-04T08:29:44;7.90;;;3.77;;
6842;SDS011;3460;52.028;8.916;2022-10-04T08:32:25;7.93;;;4.00;;
6842;SDS011;3460;52.028;8.916;2022-10-04T08:35:01;9.53;;;4.27;;
6842;SDS011;3460;52.028;8.916;2022-10-04T08:37:44;7.67;;;4.13;;
6842;SDS011;3460;52.028;8.916;2022-10-04T08:40:30;5.53;;;3.87;;
6842;SDS011;3460;52.028;8.916;2022-10-04T08:43:26;11.43;;;3.83;;
6842;SDS011;3460;52.028;8.916;2022-10-04T08:49:31;9.53;;;4.27;;
6842;SDS011;3460;52.028;8.916;2022-10-04T08:52:24;5.83;;;4.03;;
6842;SDS011;3460;52.028;8.916;2022-10-04T08:55:10;8.87;;;4.00;;
6842;SDS011;3460;52.028;8.916;2022-10-04T08:58:12;8.93;;;3.70;;
6842;SDS011;3460;52.028;8.916;2022-10-04T09:01:00;9.70;;;3.53;;
6842;SDS011;3460;52.028;8.916;2022-10-04T09:03:47;6.63;;;3.70;;
6842;SDS011;3460;52.028;8.916;2022-10-04T09:06:41;7.97;;;3.90;;
6842;SDS011;3460;52.028;8.916;2022-10-04T09:09:30;10.23;;;3.30;;
6842;SDS011;3460;52.028;8.916;2022-10-04T09:12:28;7.47;;;3.50;;
6842;SDS011;3460;52.028;8.916;2022-10-04T09:15:22;7.93;;;3.53;;
6842;SDS011;3460;52.028;8.916;2022-10-04T09:18:05;8.53;;;4.13;;
6842;SDS011;3460;52.028;8.916;2022-10-04T09:20:49;9.60;;;3.83;;
6842;SDS011;3460;52.028;8.916;2022-10-04T09:26:37;9.37;;;4.03;;
6842;SDS011;3460;52.028;8.916;2022-10-04T09:29:19;7.93;;;3.63;;
6842;SDS011;3460;52.028;8.916;2022-10-04T09:38:45;6.53;;;3.20;;
6842;SDS011;3460;52.028;8.916;2022-10-04T09:41:33;10.03;;;3.23;;
6842;SDS011;3460;52.028;8.916;2022-10-04T09:44:23;9.63;;;3.30;;
6842;SDS011;3460;52.028;8.916;2022-10-04T09:53:18;10.13;;;3.47;;
6842;SDS011;3460;52.028;8.916;2022-10-04T09:56:03;6.97;;;3.40;;
6842;SDS011;3460;52.028;8.916;2022-10-04T09:58:50;14.27;;;3.40;;
6842;SDS011;3460;52.028;8.916;2022-10-04T10:01:38;10.77;;;3.50;;
6842;SDS011;3460;52.028;8.916;2022-10-04T10:04:26;7.07;;;3.40;;
6842;SDS011;3460;52.028;8.916;2022-10-04T10:07:08;6.77;;;3.33;;
6842;SDS011;3460;52.028;8.916;2022-10-04T10:09:50;7.20;;;3.10;;
6842;SDS011;3460;52.028;8.916;2022-10-04T10:16:10;4.83;;;2.63;;
6842;SDS011;3460;52.028;8.916;2022-10-04T10:18:59;8.10;;;2.80;;
6842;SDS011;3460;52.028;8.916;2022-10-04T10:21:46;10.70;;;2.97;;
6842;SDS011;3460;52.028;8.916;2022-10-04T10:27:32;5.90;;;2.77;;
6842;SDS011;3460;52.028;8.916;2022-10-04T10:30:13;5.23;;;2.93;;
6842;SDS011;3460;52.028;8.916;2022-10-04T10:35:52;7.47;;;2.67;;
6842;SDS011;3460;52.028;8.916;2022-10-04T10:38:39;5.97;;;2.77;;
6842;SDS011;3460;52.028;8.916;2022-10-04T10:41:25;6.17;;;3.53;;
6842;SDS011;3460;52.028;8.916;2022-10-04T10:44:27;8.60;;;2.90;;
6842;SDS011;3460;52.028;8.916;2022-10-04T10:47:21;11.63;;;3.37;;
6842;SDS011;3460;52.028;8.916;2022-10-04T10:50:04;6.77;;;2.80;;
6842;SDS011;3460;52.028;8.916;2022-10-04T10:56:00;6.03;;;3.13;;
6842;SDS011;3460;52.028;8.916;2022-10-04T11:05:03;6.37;;;2.30;;
6842;SDS011;3460;52.028;8.916;2022-10-04T11:07:48;7.03;;;2.30;;
6842;SDS011;3460;52.028;8.916;2022-10-04T11:16:29;5.40;;;2.10;;
6842;SDS011;3460;52.028;8.916;2022-10-04T11:22:23;10.90;;;3.73;;
6842;SDS011;3460;52.028;8.916;2022-10-04T11:25:22;5.83;;;2.50;;
6842;SDS011;3460;52.028;8.916;2022-10-04T11:28:01;6.07;;;1.70;;
6842;SDS011;3460;52.028;8.916;2022-10-04T11:30:36;7.00;;;2.03;;
6842;SDS011;3460;52.028;8.916;2022-10-04T11:33:28;5.33;;;2.43;;
6842;SDS011;3460;52.028;8.916;2022-10-04T11:36:23;6.03;;;2.10;;
6842;SDS011;3460;52.028;8.916;2022-10-04T11:39:05;5.30;;;2.20;;
6842;SDS011;3460;52.028;8.916;2022-10-04T11:41:50;5.50;;;1.90;;
6842;SDS011;3460;52.028;8.916;2022-10-04T11:44:43;4.97;;;1.93;;
6842;SDS011;3460;52.028;8.916;2022-10-04T11:47:27;4.93;;;2.10;;
6842;SDS011;3460;52.028;8.916;2022-10-04T11:50:13;5.07;;;2.33;;
6842;SDS011;3460;52.028;8.916;2022-10-04T11:53:25;5.97;;;2.27;;
6842;SDS011;3460;52.028;8.916;2022-10-04T11:56:14;3.27;;;1.93;;
6842;SDS011;3460;52.028;8.916;2022-10-04T11:58:59;6.50;;;1.80;;
6842;SDS011;3460;52.028;8.916;2022-10-04T12:01:38;4.20;;;1.80;;
6842;SDS011;3460;52.028;8.916;2022-10-04T12:04:33;6.27;;;2.00;;
6842;SDS011;3460;52.028;8.916;2022-10-04T12:07:24;6.20;;;2.53;;
6842;SDS011;3460;52.028;8.916;2022-10-04T12:10:02;6.17;;;1.90;;
6842;SDS011;3460;52.028;8.916;2022-10-04T12:12:51;10.50;;;3.10;;
6842;SDS011;3460;52.028;8.916;2022-10-04T12:15:46;11.60;;;3.00;;
6842;SDS011;3460;52.028;8.916;2022-10-04T12:21:39;5.90;;;2.13;;
6842;SDS011;3460;52.028;8.916;2022-10-04T12:24:27;5.27;;;2.13;;
6842;SDS011;3460;52.028;8.916;2022-10-04T12:27:42;3.67;;;1.77;;
6842;SDS011;3460;52.028;8.916;2022-10-04T12:30:39;5.93;;;1.90;;
6842;SDS011;3460;52.028;8.916;2022-10-04T12:33:19;6.73;;;2.23;;
6842;SDS011;3460;52.028;8.916;2022-10-04T12:36:00;6.43;;;2.17;;
6842;SDS011;3460;52.028;8.916;2022-10-04T12:38:49;5.03;;;2.83;;
6842;SDS011;3460;52.028;8.916;2022-10-04T12:41:30;5.37;;;2.10;;
6842;SDS011;3460;52.028;8.916;2022-10-04T12:44:09;4.33;;;1.67;;
6842;SDS011;3460;52.028;8.916;2022-10-04T12:46:55;6.03;;;2.10;;
6842;SDS011;3460;52.028;8.916;2022-10-04T12:49:35;8.17;;;2.07;;
6842;SDS011;3460;52.028;8.916;2022-10-04T12:52:10;5.10;;;2.13;;
6842;SDS011;3460;52.028;8.916;2022-10-04T12:54:43;5.40;;;1.97;;
6842;SDS011;3460;52.028;8.916;2022-10-04T12:57:30;3.93;;;1.70;;
6842;SDS011;3460;52.028;8.916;2022-10-04T13:00:12;4.57;;;2.03;;
6842;SDS011;3460;52.028;8.916;2022-10-04T13:03:04;6.20;;;2.10;;
6842;SDS011;3460;52.028;8.916;2022-10-04T13:05:48;7.37;;;2.33;;
6842;SDS011;3460;52.028;8.916;2022-10-04T13:08:30;3.97;;;1.93;;
6842;SDS011;3460;52.028;8.916;2022-10-04T13:11:22;10.00;;;2.00;;
6842;SDS011;3460;52.028;8.916;2022-10-04T13:17:11;4.03;;;1.80;;
6842;SDS011;3460;52.028;8.916;2022-10-04T13:19:51;4.07;;;1.87;;
6842;SDS011;3460;52.028;8.916;2022-10-04T13:22:29;5.20;;;1.90;;
6842;SDS011;3460;52.028;8.916;2022-10-04T13:25:09;5.83;;;2.20;;
6842;SDS011;3460;52.028;8.916;2022-10-04T13:27:45;5.03;;;1.60;;
6842;SDS011;3460;52.028;8.916;2022-10-04T13:30:17;4.13;;;1.87;;
6842;SDS011;3460;52.028;8.916;2022-10-04T13:32:50;5.97;;;1.83;;
6842;SDS011;3460;52.028;8.916;2022-10-04T13:35:24;3.53;;;1.77;;
6842;SDS011;3460;52.028;8.916;2022-10-04T13:38:11;3.73;;;1.80;;
6842;SDS011;3460;52.028;8.916;2022-10-04T13:40:53;8.10;;;2.00;;
6842;SDS011;3460;52.028;8.916;2022-10-04T13:43:52;4.17;;;1.97;;
6842;SDS011;3460;52.028;8.916;2022-10-04T13:46:55;3.80;;;1.63;;
6842;SDS011;3460;52.028;8.916;2022-10-04T13:49:47;3.47;;;1.77;;
6842;SDS011;3460;52.028;8.916;2022-10-04T13:52:27;4.70;;;1.70;;
6842;SDS011;3460;52.028;8.916;2022-10-04T13:55:24;4.07;;;1.90;;
6842;SDS011;3460;52.028;8.916;2022-10-04T13:58:19;4.73;;;1.77;;
6842;SDS011;3460;52.028;8.916;2022-10-04T14:04:03;8.40;;;2.03;;
6842;SDS011;3460;52.028;8.916;2022-10-04T14:06:54;3.27;;;1.60;;
6842;SDS011;3460;52.028;8.916;2022-10-04T14:12:30;5.23;;;1.73;;
6842;SDS011;3460;52.028;8.916;2022-10-04T14:15:28;4.43;;;1.90;;
6842;SDS011;3460;52.028;8.916;2022-10-04T14:18:19;4.17;;;2.00;;
6842;SDS011;3460;52.028;8.916;2022-10-04T14:21:18;3.87;;;1.93;;
6842;SDS011;3460;52.028;8.916;2022-10-04T14:24:23;4.60;;;2.10;;
6842;SDS011;3460;52.028;8.916;2022-10-04T14:27:18;4.00;;;2.00;;
6842;SDS011;3460;52.028;8.916;2022-10-04T14:30:06;3.73;;;1.90;;
6842;SDS011;3460;52.028;8.916;2022-10-04T14:32:57;3.93;;;1.70;;
6842;SDS011;3460;52.028;8.916;2022-10-04T14:35:46;5.87;;;2.13;;
6842;SDS011;3460;52.028;8.916;2022-10-04T14:38:37;5.97;;;2.10;;
6842;SDS011;3460;52.028;8.916;2022-10-04T14:41:21;3.60;;;2.23;;
6842;SDS011;3460;52.028;8.916;2022-10-04T14:47:38;6.00;;;1.97;;
6842;SDS011;3460;52.028;8.916;2022-10-04T14:50:26;4.87;;;1.70;;
6842;SDS011;3460;52.028;8.916;2022-10-04T14:53:01;4.37;;;1.77;;
6842;SDS011;3460;52.028;8.916;2022-10-04T14:58:31;2.83;;;1.53;;
6842;SDS011;3460;52.028;8.916;2022-10-04T15:01:17;3.47;;;1.50;;
6842;SDS011;3460;52.028;8.916;2022-10-04T15:03:47;4.23;;;1.60;;
6842;SDS011;3460;52.028;8.916;2022-10-04T15:06:35;6.30;;;2.17;;
6842;SDS011;3460;52.028;8.916;2022-10-04T15:09:17;2.73;;;1.83;;
6842;SDS011;3460;52.028;8.916;2022-10-04T15:12:23;7.13;;;2.00;;
6842;SDS011;3460;52.028;8.916;2022-10-04T15:15:14;5.07;;;1.70;;
6842;SDS011;3460;52.028;8.916;2022-10-04T15:18:00;4.10;;;1.70;;
6842;SDS011;3460;52.028;8.916;2022-10-04T15:20:33;4.33;;;1.50;;
6842;SDS011;3460;52.028;8.916;2022-10-04T15:23:14;5.30;;;2.00;;
6842;SDS011;3460;52.028;8.916;2022-10-04T15:25:44;3.73;;;1.80;;
6842;SDS011;3460;52.028;8.916;2022-10-04T15:28:31;4.10;;;1.90;;
6842;SDS011;3460;52.028;8.916;2022-10-04T15:31:08;4.03;;;1.87;;
6842;SDS011;3460;52.028;8.916;2022-10-04T15:33:44;3.47;;;2.30;;
6842;SDS011;3460;52.028;8.916;2022-10-04T15:36:45;6.40;;;2.53;;
6842;SDS011;3460;52.028;8.916;2022-10-04T15:39:51;6.27;;;2.00;;
6842;SDS011;3460;52.028;8.916;2022-10-04T15:42:33;5.47;;;2.23;;
6842;SDS011;3460;52.028;8.916;2022-10-04T15:48:09;3.80;;;2.27;;
6842;SDS011;3460;52.028;8.916;2022-10-04T15:50:59;7.50;;;2.03;;
6842;SDS011;3460;52.028;8.916;2022-10-04T15:53:39;2.57;;;2.00;;
6842;SDS011;3460;52.028;8.916;2022-10-04T15:56:19;3.13;;;2.20;;
6842;SDS011;3460;52.028;8.916;2022-10-04T16:02:23;4.70;;;3.03;;
6842;SDS011;3460;52.028;8.916;2022-10-04T16:05:20;7.43;;;3.20;;
6842;SDS011;3460;52.028;8.916;2022-10-04T16:07:55;5.00;;;2.60;;
6842;SDS011;3460;52.028;8.916;2022-10-04T16:10:46;8.30;;;2.53;;
6842;SDS011;3460;52.028;8.916;2022-10-04T16:13:31;4.17;;;2.10;;
6842;SDS011;3460;52.028;8.916;2022-10-04T16:16:17;4.20;;;2.33;;
6842;SDS011;3460;52.028;8.916;2022-10-04T16:19:02;5.00;;;2.27;;
6842;SDS011;3460;52.028;8.916;2022-10-04T16:21:36;3.67;;;2.40;;
6842;SDS011;3460;52.028;8.916;2022-10-04T16:24:26;4.77;;;2.43;;
6842;SDS011;3460;52.028;8.916;2022-10-04T16:27:11;7.23;;;2.83;;
6842;SDS011;3460;52.028;8.916;2022-10-04T16:29:49;8.13;;;3.40;;
6842;SDS011;3460;52.028;8.916;2022-10-04T16:32:26;8.13;;;3.57;;
6842;SDS011;3460;52.028;8.916;2022-10-04T16:34:55;5.57;;;2.93;;
6842;SDS011;3460;52.028;8.916;2022-10-04T16:37:27;6.83;;;3.37;;
6842;SDS011;3460;52.028;8.916;2022-10-04T16:40:00;6.93;;;3.60;;
6842;SDS011;3460;52.028;8.916;2022-10-04T16:42:45;6.23;;;3.37;;
6842;SDS011;3460;52.028;8.916;2022-10-04T16:48:29;5.80;;;3.27;;
6842;SDS011;3460;52.028;8.916;2022-10-04T16:51:21;7.87;;;3.80;;
6842;SDS011;3460;52.028;8.916;2022-10-04T16:57:24;10.77;;;3.73;;
6842;SDS011;3460;52.028;8.916;2022-10-04T16:59:52;5.67;;;3.27;;
6842;SDS011;3460;52.028;8.916;2022-10-04T17:05:18;6.77;;;3.43;;
6842;SDS011;3460;52.028;8.916;2022-10-04T17:08:07;5.23;;;3.63;;
6842;SDS011;3460;52.028;8.916;2022-10-04T17:11:00;8.03;;;3.63;;
6842;SDS011;3460;52.028;8.916;2022-10-04T17:13:57;7.00;;;3.20;;
6842;SDS011;3460;52.028;8.916;2022-10-04T17:16:27;8.13;;;3.87;;
6842;SDS011;3460;52.028;8.916;2022-10-04T17:21:54;6.07;;;3.47;;
6842;SDS011;3460;52.028;8.916;2022-10-04T17:24:32;6.67;;;3.73;;
6842;SDS011;3460;52.028;8.916;2022-10-04T17:30:10;6.53;;;4.20;;
6842;SDS011;3460;52.028;8.916;2022-10-04T17:32:43;6.60;;;3.93;;
6842;SDS011;3460;52.028;8.916;2022-10-04T17:38:45;7.23;;;3.47;;
6842;SDS011;3460;52.028;8.916;2022-10-04T17:41:22;9.97;;;3.77;;
6842;SDS011;3460;52.028;8.916;2022-10-04T17:44:03;9.07;;;3.23;;
6842;SDS011;3460;52.028;8.916;2022-10-04T17:46:43;10.40;;;3.73;;
6842;SDS011;3460;52.028;8.916;2022-10-04T17:49:16;5.73;;;3.80;;
6842;SDS011;3460;52.028;8.916;2022-10-04T17:52:11;7.37;;;3.53;;
6842;SDS011;3460;52.028;8.916;2022-10-04T17:55:02;6.53;;;4.07;;
6842;SDS011;3460;52.028;8.916;2022-10-04T17:57:46;8.20;;;4.43;;
6842;SDS011;3460;52.028;8.916;2022-10-04T18:00:16;8.80;;;3.90;;
6842;SDS011;3460;52.028;8.916;2022-10-04T18:03:02;6.13;;;4.20;;
6842;SDS011;3460;52.028;8.916;2022-10-04T18:05:42;6.73;;;3.90;;
6842;SDS011;3460;52.028;8.916;2022-10-04T18:08:14;7.23;;;4.20;;
6842;SDS011;3460;52.028;8.916;2022-10-04T18:10:47;7.30;;;4.27;;
6842;SDS011;3460;52.028;8.916;2022-10-04T18:13:18;13.50;;;4.60;;
6842;SDS011;3460;52.028;8.916;2022-10-04T18:15:53;7.77;;;4.10;;
6842;SDS011;3460;52.028;8.916;2022-10-04T18:18:28;7.77;;;3.90;;